MAPA DE AEROPUERTO

INFORMACIÓN METAR y TAF


Deprecated: The each() function is deprecated. This message will be suppressed on further calls in /home/customer/www/clickair-va.com/public_html/VAM/vam/helpers/get_metar.php on line 20
METAR FOR GCXO
ADDS - METARS form results

(1705 UTC 12 January 2023)
Data provider http://aviationweather.gov/metar/data/
 
METAR text: GCXO 121700Z 33010KT 300V360 9000 FEW020 SCT035 15/11 Q1027 NOSIG
Conditions at: GCXO (TENERIFE/LOS ROD, ES) observed 1700 UTC 12 January 2023
Temperature: 15.0°C (59°F)
Dewpoint: 11.0°C (52°F) [RH = 77%]
Pressure (altimeter): 30.32 inches Hg (1027.0 mb)
Winds: from the NNW (330 degrees) at 12 MPH (10 knots; 5.1 m/s)
Visibility: 6 miles ( 9 km)
Ceiling: at least 12,000 feet AGL
Clouds: few clouds at 2000 feet AGL
scattered clouds at 3500 feet AGL
Weather: no significant weather observed at this time

METAR text: GCXO 121630Z 36006KT 320V070 9000 FEW020 SCT035 15/11 Q1027 NOSIG
Conditions at: GCXO (TENERIFE/LOS ROD, ES) observed 1630 UTC 12 January 2023
Temperature: 15.0°C (59°F)
Dewpoint: 11.0°C (52°F) [RH = 77%]
Pressure (altimeter): 30.32 inches Hg (1027.0 mb)
Winds: from the N (360 degrees) at 7 MPH (6 knots; 3.1 m/s)
Visibility: 6 miles ( 9 km)
Ceiling: at least 12,000 feet AGL
Clouds: few clouds at 2000 feet AGL
scattered clouds at 3500 feet AGL
Weather: no significant weather observed at this time

Forecast for: GCXO (TENERIFE/LOS ROD, ES)
Text: TAF GCXO 121400Z 1215/1315 03009KT 9999 SCT012 TX17/1314Z TN12/1306Z
Forecast period: 1500 UTC 12 January 2023 to 1500 UTC 13 January 2023
Forecast type: FROM: standard forecast or significant change
Winds: from the NNE (30 degrees) at 10 MPH (9 knots; 4.6 m/s)
Visibility: 6 or more miles (10+ km)
Ceiling: at least 12,000 feet AGL
Clouds: scattered clouds at 1200 feet AGL
Weather: no significant weather forecast for this period
Text: TEMPO 1215/1219 2500 RA BCFG BKN004
Forecast period: 1500 to 1900 UTC 12 January 2023
Forecast type: TEMPORARY: The following changes expected for less than half the time period
Visibility: 1.55 miles (2.49 km)
Ceiling: 400 feet AGL
Clouds: broken clouds at 400 feet AGL
Weather: RA BCFG  (moderate rain, patches of fog)
Text: PROB30
Forecast period: 0100 to 0800 UTC 13 January 2023
Forecast type: TEMPORARY: The following changes expected for less than half the time period
Visibility: 2.80 miles (4.51 km)
Ceiling: 900 feet AGL
Clouds: broken clouds at 900 feet AGL
Weather: BCFG  (patches of fog)